createdAt,value
2022-12-11T00:00:19.997Z,29.40
2022-12-11T00:02:50.450Z,32.70
2022-12-11T00:05:21.085Z,34.50
2022-12-11T00:07:51.530Z,31.50
2022-12-11T00:10:22.020Z,32.50
2022-12-11T00:12:52.425Z,29.10
2022-12-11T00:15:22.805Z,34.00
2022-12-11T00:17:53.222Z,44.80
2022-12-11T00:20:23.610Z,48.90
2022-12-11T00:22:54.153Z,31.20
2022-12-11T00:25:24.560Z,28.50
2022-12-11T00:27:55.009Z,31.20
2022-12-11T00:30:25.427Z,32.00
2022-12-11T00:32:55.843Z,28.80
2022-12-11T00:35:26.741Z,29.90
2022-12-11T00:37:57.164Z,38.10
2022-12-11T00:40:27.619Z,44.10
2022-12-11T00:42:58.009Z,35.70
2022-12-11T00:45:28.415Z,30.80
2022-12-11T00:47:58.835Z,29.90
2022-12-11T00:50:29.214Z,30.80
2022-12-11T00:53:00.182Z,32.70
2022-12-11T00:55:30.577Z,29.00
2022-12-11T00:58:01.073Z,31.70
2022-12-11T01:00:31.430Z,29.50
2022-12-11T01:03:02.091Z,29.50
2022-12-11T01:05:32.697Z,47.90
2022-12-11T01:08:03.360Z,44.00
2022-12-11T01:10:34.480Z,49.90
2022-12-11T01:13:07.007Z,29.10
2022-12-11T01:15:42.014Z,23.30
2022-12-11T01:18:13.705Z,27.80
2022-12-11T01:20:44.875Z,34.70
2022-12-11T01:23:15.947Z,30.90
2022-12-11T01:25:46.403Z,29.60
2022-12-11T01:28:16.837Z,29.60
2022-12-11T01:30:47.399Z,32.50
2022-12-11T01:33:17.906Z,44.00
2022-12-11T01:35:48.306Z,41.70
2022-12-11T01:38:18.715Z,41.30
2022-12-11T01:40:51.140Z,31.60
2022-12-11T01:43:21.848Z,31.20
2022-12-11T01:45:52.442Z,28.10
2022-12-11T01:48:24.780Z,27.40
2022-12-11T01:50:57.511Z,29.40
2022-12-11T01:53:30.503Z,33.30
2022-12-11T01:58:32.226Z,27.50
2022-12-11T02:01:03.286Z,41.80
2022-12-11T02:03:33.910Z,50.70
2022-12-11T02:06:05.019Z,41.40
2022-12-11T02:08:36.227Z,27.80
2022-12-11T02:11:10.351Z,30.90
2022-12-11T02:13:46.365Z,30.80
2022-12-11T02:16:22.617Z,24.90
2022-12-11T02:19:01.236Z,35.80
2022-12-11T02:21:38.413Z,34.00
2022-12-11T02:24:27.869Z,40.70
2022-12-11T02:27:17.915Z,48.50
2022-12-11T02:29:52.502Z,35.20
2022-12-11T02:32:26.243Z,31.20
2022-12-11T02:35:01.358Z,27.70
2022-12-11T02:37:32.920Z,26.50
2022-12-11T02:40:06.858Z,32.40
2022-12-11T02:42:38.711Z,29.40
2022-12-11T02:45:11.352Z,35.20
2022-12-11T02:47:41.955Z,42.00
2022-12-11T02:50:14.930Z,43.30
2022-12-11T02:55:16.204Z,32.30
2022-12-11T02:57:48.409Z,26.10
2022-12-11T03:00:19.658Z,33.00
2022-12-11T03:02:50.262Z,33.90
2022-12-11T03:05:22.393Z,31.90
2022-12-11T03:07:53.629Z,27.10
2022-12-11T03:10:24.712Z,34.30
2022-12-11T03:12:57.026Z,23.40
2022-12-11T03:15:32.790Z,46.60
2022-12-11T03:18:07.571Z,47.20
2022-12-11T03:20:42.702Z,31.90
2022-12-11T03:23:19.028Z,31.20
2022-12-11T03:25:55.460Z,37.00
2022-12-11T03:28:30.691Z,35.10
2022-12-11T03:31:06.476Z,37.20
2022-12-11T03:33:40.029Z,34.20
2022-12-11T03:36:13.744Z,41.30
2022-12-11T03:38:50.144Z,43.60
2022-12-11T03:41:22.149Z,47.50
2022-12-11T03:43:54.676Z,39.40
2022-12-11T03:46:29.075Z,38.70
2022-12-11T03:49:02.532Z,34.80
2022-12-11T03:51:33.996Z,37.90
2022-12-11T03:54:05.061Z,31.10
2022-12-11T03:56:37.386Z,38.90
2022-12-11T03:59:07.799Z,28.90
2022-12-11T04:01:38.489Z,48.60
2022-12-11T04:04:09.161Z,48.40
2022-12-11T04:06:39.595Z,38.60
2022-12-11T04:09:10.116Z,36.30
2022-12-11T04:11:42.837Z,34.20
2022-12-11T04:14:33.345Z,33.20
2022-12-11T04:17:04.355Z,36.50
2022-12-11T04:19:52.168Z,39.00
2022-12-11T04:22:40.157Z,46.30
2022-12-11T04:25:11.506Z,52.90
2022-12-11T04:27:50.980Z,42.30
2022-12-11T04:30:28.043Z,39.60
2022-12-11T04:33:01.413Z,38.70
2022-12-11T04:35:31.927Z,33.20
2022-12-11T04:38:02.340Z,34.20
2022-12-11T04:40:32.842Z,39.80
2022-12-11T04:43:03.298Z,42.90
2022-12-11T04:45:33.784Z,36.40
2022-12-11T04:48:04.157Z,33.30
2022-12-11T04:50:34.504Z,32.40
2022-12-11T04:53:04.936Z,31.90
2022-12-11T04:55:35.358Z,33.90
2022-12-11T04:58:05.789Z,37.80
2022-12-11T05:00:36.150Z,36.50
2022-12-11T05:03:06.656Z,38.00
2022-12-11T05:05:37.080Z,28.70
2022-12-11T05:08:08.259Z,53.50
2022-12-11T05:10:38.764Z,38.50
2022-12-11T05:13:09.341Z,33.90
2022-12-11T05:15:41.303Z,41.00
2022-12-11T05:18:11.717Z,36.80
2022-12-11T05:20:42.075Z,43.80
2022-12-11T05:23:12.498Z,46.80
2022-12-11T05:25:42.992Z,52.50
2022-12-11T05:28:13.469Z,49.10
2022-12-11T05:30:43.911Z,40.60
2022-12-11T05:33:14.449Z,41.30
2022-12-11T05:35:50.245Z,41.00
2022-12-11T05:38:20.732Z,38.60
2022-12-11T05:40:59.575Z,41.30
2022-12-11T05:43:31.784Z,49.40
2022-12-11T05:46:09.066Z,51.90
2022-12-11T05:48:40.344Z,38.30
2022-12-11T05:51:11.557Z,39.20
2022-12-11T05:53:44.059Z,40.70
2022-12-11T05:56:16.437Z,37.40
2022-12-11T05:58:47.880Z,37.90
2022-12-11T06:01:20.100Z,35.60
2022-12-11T06:03:50.787Z,40.40
2022-12-11T06:06:21.277Z,48.00
2022-12-11T06:08:53.934Z,56.70
2022-12-11T06:11:25.034Z,48.60
2022-12-11T06:13:55.589Z,35.80
2022-12-11T06:16:26.813Z,43.90
2022-12-11T06:18:58.603Z,43.30
2022-12-11T06:21:31.336Z,38.80
2022-12-11T06:24:03.964Z,45.00
2022-12-11T06:26:34.640Z,34.30
2022-12-11T06:29:09.043Z,51.00
2022-12-11T06:31:43.032Z,62.10
2022-12-11T06:34:13.832Z,50.20
2022-12-11T06:36:44.217Z,35.60
2022-12-11T06:39:14.622Z,37.40
2022-12-11T06:41:46.961Z,36.40
2022-12-11T06:44:17.579Z,39.40
2022-12-11T06:46:48.105Z,41.20
2022-12-11T06:49:22.032Z,43.50
2022-12-11T06:51:52.485Z,46.10
2022-12-11T06:54:23.592Z,53.60
2022-12-11T06:56:54.345Z,46.20
2022-12-11T06:59:24.798Z,37.80
2022-12-11T07:01:55.359Z,40.80
2022-12-11T07:04:27.424Z,40.30
2022-12-11T07:06:58.077Z,40.60
2022-12-11T07:09:28.677Z,41.30
2022-12-11T07:11:59.218Z,50.10
2022-12-11T07:14:29.730Z,57.20
2022-12-11T07:17:00.680Z,45.40
2022-12-11T07:19:31.480Z,38.40
2022-12-11T07:22:01.961Z,41.50
2022-12-11T07:24:32.654Z,42.80
2022-12-11T07:27:03.303Z,44.50
2022-12-11T07:29:33.794Z,48.90
2022-12-11T07:32:04.353Z,48.00
2022-12-11T07:34:34.892Z,56.70
2022-12-11T07:37:05.382Z,73.40
2022-12-11T07:39:35.870Z,56.80
2022-12-11T07:42:06.573Z,45.10
2022-12-11T07:44:37.000Z,42.90
2022-12-11T07:47:07.513Z,46.40
2022-12-11T07:49:38.344Z,43.30
2022-12-11T07:52:09.193Z,44.00
2022-12-11T07:54:39.658Z,51.80
2022-12-11T07:57:14.100Z,59.90
2022-12-11T07:59:45.351Z,44.40
2022-12-11T08:02:15.810Z,45.50
2022-12-11T08:04:46.372Z,49.90
2022-12-11T08:07:16.911Z,48.00
2022-12-11T08:09:47.423Z,39.50
2022-12-11T08:12:17.891Z,54.10
2022-12-11T08:14:48.506Z,53.60
2022-12-11T08:17:18.861Z,66.80
2022-12-11T08:19:49.404Z,52.40
2022-12-11T08:22:19.842Z,52.30
2022-12-11T08:24:50.672Z,52.20
2022-12-11T08:27:21.133Z,48.80
2022-12-11T08:29:51.591Z,44.20
2022-12-11T08:32:22.025Z,47.90
2022-12-11T08:34:54.743Z,50.60
2022-12-11T08:37:25.371Z,63.70
2022-12-11T08:39:55.844Z,65.20
2022-12-11T08:42:26.392Z,51.90
2022-12-11T08:44:56.886Z,46.90
2022-12-11T08:47:27.335Z,49.10
2022-12-11T08:50:00.294Z,46.50
2022-12-11T08:55:01.936Z,38.30
2022-12-11T08:57:32.557Z,59.10
2022-12-11T09:00:03.232Z,51.60
2022-12-11T09:02:33.743Z,48.60
2022-12-11T09:05:07.742Z,46.00
2022-12-11T09:07:38.939Z,45.70
2022-12-11T09:10:11.115Z,47.10
2022-12-11T09:12:41.602Z,41.40
2022-12-11T09:15:13.334Z,46.90
2022-12-11T09:17:44.521Z,52.70
2022-12-11T09:20:15.442Z,50.20
2022-12-11T09:22:45.869Z,47.40
2022-12-11T09:25:16.272Z,47.10
2022-12-11T09:27:46.701Z,49.00
2022-12-11T09:30:18.553Z,43.30
2022-12-11T09:32:49.219Z,37.60
2022-12-11T09:35:19.766Z,52.00
2022-12-11T09:37:51.914Z,55.60
2022-12-11T09:40:22.613Z,49.00
2022-12-11T09:43:16.247Z,44.20
2022-12-11T09:45:46.697Z,38.50
2022-12-11T09:48:19.546Z,44.70
2022-12-11T09:50:50.710Z,40.80
2022-12-11T09:53:23.493Z,47.40
2022-12-11T09:55:57.399Z,40.60
2022-12-11T09:58:31.852Z,51.20
2022-12-11T10:01:07.425Z,52.80
2022-12-11T10:03:45.245Z,44.30
2022-12-11T10:06:21.704Z,48.80
2022-12-11T10:08:57.984Z,36.70
2022-12-11T10:11:56.490Z,45.20
2022-12-11T10:14:34.458Z,44.30
2022-12-11T10:17:08.086Z,42.90
2022-12-11T10:19:38.628Z,45.10
2022-12-11T10:22:15.479Z,38.20
2022-12-11T10:27:41.552Z,39.30
2022-12-11T10:30:18.857Z,40.40
2022-12-11T10:33:02.060Z,43.00
2022-12-11T10:38:14.602Z,54.60
2022-12-11T10:40:47.177Z,42.20
2022-12-11T10:43:17.569Z,44.20
2022-12-11T10:45:55.080Z,39.70
2022-12-11T10:48:25.630Z,39.70
2022-12-11T10:51:05.642Z,41.40
2022-12-11T10:53:36.305Z,49.00
2022-12-11T10:56:07.851Z,47.40
2022-12-11T10:58:41.591Z,51.30
2022-12-11T11:01:15.367Z,51.10
2022-12-11T11:03:56.647Z,50.50
2022-12-11T11:06:27.759Z,31.80
2022-12-11T11:09:00.461Z,51.40
2022-12-11T11:11:34.297Z,63.10
2022-12-11T11:14:13.814Z,68.60
2022-12-11T11:16:45.868Z,51.90
2022-12-11T11:19:24.639Z,39.00
2022-12-11T11:21:57.679Z,54.00
2022-12-11T11:24:36.434Z,57.30
2022-12-11T11:27:15.621Z,51.90
2022-12-11T11:29:51.570Z,61.70
2022-12-11T11:32:33.001Z,67.20
2022-12-11T11:35:19.412Z,53.20
2022-12-11T11:37:57.985Z,51.70
2022-12-11T11:40:31.737Z,35.40
2022-12-11T11:43:08.727Z,48.70
2022-12-11T11:45:44.458Z,43.60
2022-12-11T11:48:31.940Z,48.90
2022-12-11T11:51:08.282Z,54.60
2022-12-11T11:53:41.531Z,67.00
2022-12-11T11:56:21.348Z,65.50
2022-12-11T11:58:57.558Z,51.10
2022-12-11T12:01:28.253Z,52.00
2022-12-11T12:03:58.855Z,51.90
2022-12-11T12:06:37.847Z,41.40
2022-12-11T12:09:20.884Z,47.50
2022-12-11T12:11:56.848Z,53.50
2022-12-11T12:14:51.689Z,59.90
2022-12-11T12:17:24.109Z,43.10
2022-12-11T12:20:03.906Z,48.60
2022-12-11T12:22:46.311Z,50.10
2022-12-11T12:25:23.429Z,46.40
2022-12-11T12:28:00.414Z,54.30
2022-12-11T12:30:33.203Z,52.90
2022-12-11T12:33:15.002Z,67.90
2022-12-11T12:35:53.820Z,55.90
2022-12-11T12:38:27.980Z,48.40
2022-12-11T12:41:07.324Z,41.90
2022-12-11T12:43:49.149Z,54.40
2022-12-11T12:46:25.263Z,54.10
2022-12-11T12:48:58.285Z,43.40
2022-12-11T12:51:29.309Z,52.30
2022-12-11T12:54:02.275Z,60.70
2022-12-11T12:59:05.195Z,40.60
2022-12-11T13:01:35.683Z,35.40
2022-12-11T13:04:20.760Z,48.00
2022-12-11T13:07:10.862Z,44.00
2022-12-11T13:09:43.024Z,40.60
2022-12-11T13:12:22.361Z,49.10
2022-12-11T13:14:59.809Z,52.60
2022-12-11T13:17:38.704Z,32.40
2022-12-11T13:20:19.564Z,41.40
2022-12-11T13:22:58.042Z,31.30
2022-12-11T13:25:35.187Z,33.70
2022-12-11T13:28:23.263Z,35.60
2022-12-11T13:31:04.956Z,32.10
2022-12-11T13:33:38.676Z,44.50
2022-12-11T13:36:30.048Z,48.90
2022-12-11T13:39:03.819Z,41.30
2022-12-11T13:41:37.501Z,34.20
2022-12-11T13:44:09.035Z,34.70
2022-12-11T13:46:40.235Z,29.90
2022-12-11T13:49:22.047Z,41.50
2022-12-11T13:51:57.700Z,36.50
2022-12-11T13:54:31.353Z,33.80
2022-12-11T13:57:15.225Z,49.50
2022-12-11T13:59:50.464Z,53.40
2022-12-11T14:02:24.296Z,42.40
2022-12-11T14:04:57.798Z,44.70
2022-12-11T14:07:30.977Z,40.60
2022-12-11T14:10:06.077Z,34.00
2022-12-11T14:12:36.678Z,39.50
2022-12-11T14:15:12.963Z,40.10
2022-12-11T14:17:51.367Z,36.30
2022-12-11T14:20:23.744Z,46.50
2022-12-11T14:23:04.946Z,41.50
2022-12-11T14:25:35.456Z,37.40
2022-12-11T14:28:06.137Z,36.40
2022-12-11T14:30:38.649Z,37.10
2022-12-11T14:33:09.145Z,40.70
2022-12-11T14:35:43.089Z,38.40
2022-12-11T14:38:19.519Z,33.70
2022-12-11T14:40:53.180Z,31.50
2022-12-11T14:43:26.582Z,41.00
2022-12-11T14:46:00.714Z,38.80
2022-12-11T14:48:33.789Z,45.90
2022-12-11T14:53:36.835Z,37.40
2022-12-11T14:56:09.682Z,32.20
2022-12-11T14:58:43.653Z,38.80
2022-12-11T15:01:25.821Z,39.90
2022-12-11T15:04:07.169Z,38.40
2022-12-11T15:06:44.417Z,40.20
2022-12-11T15:09:29.354Z,39.30
2022-12-11T15:12:09.433Z,53.80
2022-12-11T15:14:45.231Z,44.40
2022-12-11T15:17:16.938Z,38.00
2022-12-11T15:19:51.572Z,46.10
2022-12-11T15:22:25.129Z,38.80
2022-12-11T15:24:56.493Z,33.30
2022-12-11T15:27:33.925Z,31.10
2022-12-11T15:30:15.836Z,35.00
2022-12-11T15:32:46.230Z,29.50
2022-12-11T15:35:27.569Z,34.00
2022-12-11T15:37:59.116Z,39.80
2022-12-11T15:40:29.886Z,42.10
2022-12-11T15:43:00.519Z,39.50
2022-12-11T15:45:30.888Z,35.30
2022-12-11T15:48:01.288Z,38.70
2022-12-11T15:50:32.054Z,44.80
2022-12-11T16:00:39.117Z,41.40
2022-12-11T16:03:10.459Z,45.90
2022-12-11T16:05:41.083Z,43.80
2022-12-11T16:08:12.214Z,34.00
2022-12-11T16:10:43.532Z,37.90
2022-12-11T16:13:14.471Z,37.80
2022-12-11T16:15:46.231Z,34.50
2022-12-11T16:18:18.026Z,31.20
2022-12-11T16:20:48.847Z,47.10
2022-12-11T16:23:20.033Z,44.50
2022-12-11T16:25:50.925Z,44.60
2022-12-11T16:28:22.412Z,36.90
2022-12-11T16:30:52.927Z,41.50
2022-12-11T16:33:23.664Z,42.20
2022-12-11T16:35:54.423Z,35.40
2022-12-11T16:38:24.946Z,28.60
2022-12-11T16:41:03.356Z,37.90
2022-12-11T16:43:34.661Z,44.40
2022-12-11T16:46:05.427Z,50.30
2022-12-11T16:48:35.890Z,36.60
2022-12-11T16:51:07.036Z,39.10
2022-12-11T16:53:37.600Z,38.90
2022-12-11T16:56:09.667Z,37.30
2022-12-11T16:58:40.532Z,31.60
2022-12-11T17:01:13.755Z,33.10
2022-12-11T17:03:45.447Z,43.10
2022-12-11T17:06:17.418Z,51.70
2022-12-11T17:08:48.260Z,48.30
2022-12-11T17:11:20.098Z,41.00
2022-12-11T17:13:52.128Z,41.30
2022-12-11T17:16:24.871Z,35.80
2022-12-11T17:18:56.085Z,38.10
2022-12-11T17:21:26.786Z,41.80
2022-12-11T17:23:57.216Z,41.90
2022-12-11T17:26:28.585Z,45.40
2022-12-11T17:29:00.039Z,51.80
2022-12-11T17:31:30.543Z,41.60
2022-12-11T17:34:01.760Z,36.20
2022-12-11T17:36:32.193Z,43.50
2022-12-11T17:39:02.751Z,37.90
2022-12-11T17:41:33.405Z,41.60
2022-12-11T17:44:04.117Z,33.10
2022-12-11T17:46:34.817Z,44.80
2022-12-11T17:49:06.164Z,64.00
2022-12-11T17:51:36.633Z,56.90
2022-12-11T17:54:07.231Z,57.50
2022-12-11T17:56:37.598Z,52.10
2022-12-11T17:59:08.135Z,51.80
2022-12-11T18:01:38.653Z,57.30
2022-12-11T18:04:09.567Z,51.80
2022-12-11T18:06:40.047Z,51.20
2022-12-11T18:09:11.249Z,41.80
2022-12-11T18:11:41.686Z,50.00
2022-12-11T18:14:16.870Z,62.20
2022-12-11T18:16:48.489Z,57.70
2022-12-11T18:19:19.419Z,54.50
2022-12-11T18:21:50.392Z,60.30
2022-12-11T18:24:21.036Z,53.60
2022-12-11T18:26:51.454Z,55.40
2022-12-11T18:29:21.864Z,61.80
2022-12-11T18:31:52.340Z,65.60
2022-12-11T18:34:22.855Z,66.10
2022-12-11T18:36:53.275Z,56.30
2022-12-11T18:39:23.810Z,56.40
2022-12-11T18:42:24.381Z,59.20
2022-12-11T18:44:45.414Z,52.10
2022-12-11T18:47:16.002Z,57.10
2022-12-11T18:49:46.362Z,56.90
2022-12-11T18:52:16.868Z,64.10
2022-12-11T18:54:47.251Z,62.00
2022-12-11T18:57:17.650Z,59.70
2022-12-11T18:59:48.029Z,53.30
2022-12-11T19:02:18.735Z,55.30
2022-12-11T19:06:13.127Z,55.90
2022-12-11T19:08:43.676Z,54.10
2022-12-11T19:11:16.922Z,57.60
2022-12-11T19:13:48.393Z,62.60
2022-12-11T19:16:24.601Z,72.60
2022-12-11T19:18:55.368Z,60.20
2022-12-11T19:21:25.948Z,50.80
2022-12-11T19:23:56.396Z,51.60
2022-12-11T19:26:27.082Z,59.10
2022-12-11T19:29:00.002Z,54.50
2022-12-11T19:34:00.830Z,52.40
2022-12-11T19:36:33.602Z,64.30
2022-12-11T19:39:09.821Z,71.60
2022-12-11T19:41:43.405Z,70.00
2022-12-11T19:44:14.088Z,56.10
2022-12-11T19:46:44.608Z,59.10
2022-12-11T19:49:15.405Z,52.20
2022-12-11T19:51:46.210Z,56.60
2022-12-11T19:54:17.877Z,52.80
2022-12-11T19:56:48.306Z,51.10
2022-12-11T19:59:19.177Z,71.30
2022-12-11T20:01:49.807Z,80.60
2022-12-11T20:04:21.061Z,58.40
2022-12-11T20:06:51.690Z,51.90
2022-12-11T20:09:22.240Z,50.50
2022-12-11T20:11:52.766Z,49.20
2022-12-11T20:14:26.955Z,55.30
2022-12-11T20:17:14.947Z,60.00
2022-12-11T20:19:45.965Z,76.30
2022-12-11T20:22:16.617Z,69.70
2022-12-11T20:24:47.027Z,62.30
2022-12-11T20:27:17.447Z,53.50
2022-12-11T20:29:48.038Z,55.80
2022-12-11T20:32:18.657Z,55.30
2022-12-11T20:34:49.181Z,55.40
2022-12-11T20:37:19.865Z,53.20
2022-12-11T20:39:50.310Z,64.00
2022-12-11T20:42:20.708Z,75.10
2022-12-11T20:44:51.336Z,55.60
2022-12-11T20:47:22.546Z,50.40
2022-12-11T20:49:53.545Z,54.90
2022-12-11T20:52:23.996Z,48.40
2022-12-11T20:54:54.292Z,51.50
2022-12-11T20:57:24.702Z,59.40
2022-12-11T20:59:55.192Z,69.90
2022-12-11T21:02:25.872Z,52.40
2022-12-11T21:04:56.317Z,50.60
2022-12-11T21:07:26.987Z,51.20
2022-12-11T21:09:57.362Z,46.50
2022-12-11T21:12:31.512Z,49.50
2022-12-11T21:21:00.417Z,46.40
2022-12-11T21:23:30.833Z,54.40
2022-12-11T21:26:01.352Z,57.10
2022-12-11T21:28:35.548Z,50.60
2022-12-11T21:31:09.656Z,42.30
2022-12-11T21:33:40.216Z,40.50
2022-12-11T21:36:13.707Z,40.10
2022-12-11T21:38:45.966Z,31.50
2022-12-11T21:41:17.693Z,32.40
2022-12-11T21:46:39.766Z,46.00
2022-12-11T21:49:10.277Z,52.20
2022-12-11T21:51:47.130Z,40.70
2022-12-11T21:54:19.955Z,38.30
2022-12-11T21:56:50.363Z,36.00
2022-12-11T21:59:20.827Z,40.60
2022-12-11T22:01:51.387Z,42.80
2022-12-11T22:04:22.512Z,44.00
2022-12-11T22:06:55.653Z,40.60
2022-12-11T22:09:26.309Z,56.50
2022-12-11T22:11:58.723Z,61.40
2022-12-11T22:14:31.270Z,56.30
2022-12-11T22:17:02.858Z,44.00
2022-12-11T22:19:33.409Z,46.50
2022-12-11T22:22:03.821Z,46.70
2022-12-11T22:24:34.506Z,51.90
2022-12-11T22:27:05.002Z,50.80
2022-12-11T22:29:35.840Z,58.90
2022-12-11T22:32:06.656Z,78.50
2022-12-11T22:34:37.387Z,54.80
2022-12-11T22:37:07.839Z,47.40
2022-12-11T22:39:38.192Z,49.30
2022-12-11T22:42:08.633Z,46.40
2022-12-11T22:44:39.012Z,45.30
2022-12-11T22:47:09.755Z,50.40
2022-12-11T22:49:40.272Z,61.40
2022-12-11T22:52:11.065Z,68.30
2022-12-11T22:54:42.461Z,60.90
2022-12-11T22:57:14.171Z,49.50
2022-12-11T22:59:44.571Z,50.20
2022-12-11T23:02:15.388Z,46.50
2022-12-11T23:04:45.878Z,49.00
2022-12-11T23:07:16.316Z,45.00
2022-12-11T23:09:46.991Z,44.60
2022-12-11T23:12:18.891Z,50.40
2022-12-11T23:14:49.567Z,72.10
2022-12-11T23:17:20.053Z,65.60
2022-12-11T23:19:50.550Z,45.60
2022-12-11T23:22:20.973Z,45.90
2022-12-11T23:24:51.423Z,39.30
2022-12-11T23:27:21.799Z,48.40
2022-12-11T23:29:52.429Z,45.30
2022-12-11T23:32:22.956Z,56.30
2022-12-11T23:34:53.366Z,70.90
2022-12-11T23:37:23.838Z,63.30
2022-12-11T23:39:54.273Z,43.90
2022-12-11T23:42:24.778Z,42.30
2022-12-11T23:44:55.312Z,42.30
2022-12-11T23:47:25.959Z,45.20
2022-12-11T23:49:56.628Z,42.10
2022-12-11T23:52:27.203Z,42.30
2022-12-11T23:54:57.705Z,53.20
2022-12-11T23:57:29.268Z,67.60
2022-12-11T23:59:59.681Z,52.90
